Berwyn, Nebraska
Current Conditions -  °F | °C
As of 11:53 AM on Friday 24 Oct 2014 (Local Time) from KBBW Reporting Station
Clear Clear  
Wind Chill: 70°   Ceiling: Unl
Heat Index: 70°   Visibility: 10mi
Dew Point: 45°   Wind: 8mph
Humidity: 41%   Direction: 310°NW
Pressure: 29.98"   Gusts: NA
Location:  41.35°N, 99.5°W
Report Text: KBBW 241653Z AUTO 31007KT 10SM CLR 21/07 A2998 RMK AO2 SLP140 T02110072
Loading
Personal Weather Stations






























Interactive Weather Map
Tropical Storm Tracking
New forecast layout! Learn more

10-Day Weather Forecast

Advertisements
Track Severe Weather on mobile